Time;durP1;ratioP1;P1;durP2;ratioP2;P2;SDS_P1;SDS_P2;PMS_P1;PMS_P2;Temp;Humidity;BMP_temperature;BMP_pressure;BME280_temperature;BME280_humidity;BME280_pressure;Samples;Min_cycle;Max_cycle;Signal;HPM_P1;HPM_P2
2023/06/04 00:01:58;;;;;;;3.33;1.97;;;;;;;;;;5016938;28;20580;-66
2023/06/04 00:04:24;;;;;;;2.58;1.88;;;;;;;;;;5005634;28;20696;-67
2023/06/04 00:06:50;;;;;;;2.70;1.92;;;;;;;;;;5020539;28;20065;-62
2023/06/04 00:09:15;;;;;;;3.17;1.90;;;;;;;;;;5024415;28;20065;-66
2023/06/04 00:11:40;;;;;;;2.58;1.73;;;;;;;;;;5025469;28;20291;-66
2023/06/04 00:14:05;;;;;;;2.63;2.00;;;;;;;;;;5019711;28;20526;-63
2023/06/04 00:16:31;;;;;;;2.70;1.90;;;;;;;;;;5022968;28;20465;-67
2023/06/04 00:18:56;;;;;;;3.60;2.10;;;;;;;;;;5023116;28;20293;-67
2023/06/04 00:21:21;;;;;;;2.40;1.80;;;;;;;;;;5025107;28;20087;-67
2023/06/04 00:23:47;;;;;;;3.20;2.00;;;;;;;;;;5021413;28;20042;-65
2023/06/04 00:26:12;;;;;;;2.33;1.90;;;;;;;;;;5023789;28;20060;-62
2023/06/04 00:28:37;;;;;;;2.93;2.00;;;;;;;;;;5023858;28;20303;-66
2023/06/04 00:31:04;;;;;;;3.45;2.17;;;;;;;;;;5020377;28;20320;-67
2023/06/04 00:33:29;;;;;;;3.20;2.00;;;;;;;;;;5018811;28;20205;-65
2023/06/04 00:35:54;;;;;;;3.57;2.20;;;;;;;;;;5008752;28;20057;-61
2023/06/04 00:38:20;;;;;;;3.07;2.30;;;;;;;;;;5022567;28;20025;-64
2023/06/04 00:40:45;;;;;;;4.33;2.30;;;;;;;;;;5017352;28;20037;-65
2023/06/04 00:43:10;;;;;;;3.47;1.90;;;;;;;;;;5020529;28;20272;-66
2023/06/04 00:45:36;;;;;;;2.60;1.90;;;;;;;;;;5023650;28;20107;-67
2023/06/04 00:48:01;;;;;;;2.60;2.03;;;;;;;;;;5023871;28;20038;-67
2023/06/04 00:50:26;;;;;;;2.63;2.00;;;;;;;;;;5017554;28;20048;-68
2023/06/04 00:52:51;;;;;;;2.60;1.50;;;;;;;;;;5022547;28;20793;-67
2023/06/04 00:55:18;;;;;;;2.60;2.10;;;;;;;;;;5022303;28;20726;-62
2023/06/04 00:57:43;;;;;;;2.33;1.70;;;;;;;;;;5015390;28;20295;-64
2023/06/04 01:00:09;;;;;;;2.35;1.73;;;;;;;;;;5012026;28;20050;-67
2023/06/04 01:02:35;;;;;;;2.78;1.85;;;;;;;;;;5012927;28;20041;-64
2023/06/04 01:05:11;;;;;;;2.30;1.67;;;;;;;;;;4996442;28;20059;-62
2023/06/04 01:07:36;;;;;;;3.30;1.95;;;;;;;;;;5010184;28;20030;-63
2023/06/04 01:10:02;;;;;;;2.65;1.83;;;;;;;;;;5014019;28;20038;-67
2023/06/04 01:12:27;;;;;;;2.50;1.70;;;;;;;;;;5009547;28;20034;-66
2023/06/04 01:14:52;;;;;;;2.17;1.80;;;;;;;;;;5012429;28;20164;-61
2023/06/04 01:17:37;;;;;;;2.33;1.77;;;;;;;;;;5004085;28;20125;-63
2023/06/04 01:20:05;;;;;;;2.63;1.70;;;;;;;;;;5021554;28;20041;-63
2023/06/04 01:22:49;;;;;;;2.25;1.80;;;;;;;;;;5019908;28;20034;-68
2023/06/04 01:25:19;;;;;;;2.75;1.70;;;;;;;;;;5022473;28;20132;-67
2023/06/04 01:27:46;;;;;;;2.55;1.92;;;;;;;;;;5002841;28;20043;-68
2023/06/04 01:30:11;;;;;;;2.97;1.92;;;;;;;;;;5006339;28;20491;-68
2023/06/04 01:32:37;;;;;;;2.33;1.80;;;;;;;;;;5020846;28;20194;-65
2023/06/04 01:35:02;;;;;;;2.63;1.97;;;;;;;;;;5029018;28;20042;-63
2023/06/04 01:37:27;;;;;;;2.22;1.60;;;;;;;;;;5015794;28;20291;-67
2023/06/04 01:39:52;;;;;;;2.20;1.73;;;;;;;;;;5021643;28;20482;-66
2023/06/04 01:42:18;;;;;;;2.70;1.70;;;;;;;;;;5019628;28;20064;-61
2023/06/04 01:44:43;;;;;;;2.63;1.93;;;;;;;;;;5022390;28;20821;-61
2023/06/04 01:47:08;;;;;;;2.15;1.67;;;;;;;;;;5017708;28;20423;-66
2023/06/04 01:49:33;;;;;;;3.13;1.80;;;;;;;;;;5023478;28;20060;-64
2023/06/04 01:51:59;;;;;;;4.57;2.10;;;;;;;;;;4999221;28;20045;-67
2023/06/04 01:54:24;;;;;;;2.33;1.60;;;;;;;;;;5021010;28;20030;-64
2023/06/04 01:56:49;;;;;;;3.17;1.88;;;;;;;;;;5021123;28;20314;-66
2023/06/04 01:59:16;;;;;;;2.15;1.60;;;;;;;;;;5006246;28;20460;-64
2023/06/04 02:01:41;;;;;;;2.70;1.75;;;;;;;;;;5023836;28;20124;-63
2023/06/04 02:04:06;;;;;;;2.40;1.80;;;;;;;;;;5021321;28;20180;-64
2023/06/04 02:06:32;;;;;;;2.93;1.70;;;;;;;;;;5021680;28;20229;-64
2023/06/04 02:08:57;;;;;;;2.20;1.70;;;;;;;;;;5023416;28;20310;-62
2023/06/04 02:11:22;;;;;;;4.50;1.88;;;;;;;;;;5016334;28;20040;-67
2023/06/04 02:13:47;;;;;;;2.67;1.87;;;;;;;;;;5021621;28;20041;-67
2023/06/04 02:16:13;;;;;;;3.17;1.70;;;;;;;;;;5021717;28;20287;-62
2023/06/04 02:18:38;;;;;;;2.10;1.38;;;;;;;;;;5015032;28;20050;-64
2023/06/04 02:21:03;;;;;;;3.07;1.80;;;;;;;;;;5021137;28;20057;-62
2023/06/04 02:23:28;;;;;;;1.90;1.70;;;;;;;;;;5021197;28;20503;-65
2023/06/04 02:25:54;;;;;;;4.37;1.90;;;;;;;;;;5018760;28;20084;-64
2023/06/04 02:28:19;;;;;;;1.85;1.42;;;;;;;;;;5017490;28;20299;-64
2023/06/04 02:30:45;;;;;;;3.13;1.67;;;;;;;;;;5020880;28;20030;-63
2023/06/04 02:33:11;;;;;;;1.90;1.42;;;;;;;;;;5020646;28;20585;-63
2023/06/04 02:35:37;;;;;;;2.05;1.63;;;;;;;;;;5019597;28;20034;-66
2023/06/04 02:38:02;;;;;;;2.67;1.58;;;;;;;;;;5022837;28;20038;-63
2023/06/04 02:40:27;;;;;;;2.33;1.43;;;;;;;;;;5002387;28;20060;-64
2023/06/04 02:42:53;;;;;;;2.63;1.50;;;;;;;;;;5019170;28;20291;-67
2023/06/04 02:45:18;;;;;;;2.13;1.42;;;;;;;;;;5022887;28;20061;-62
2023/06/04 02:47:43;;;;;;;1.90;1.53;;;;;;;;;;5017932;28;20037;-63
2023/06/04 02:50:09;;;;;;;2.50;1.50;;;;;;;;;;5019156;28;20295;-65
2023/06/04 02:52:36;;;;;;;2.30;1.45;;;;;;;;;;5023328;28;20034;-67
2023/06/04 02:55:03;;;;;;;2.70;1.67;;;;;;;;;;5015907;28;20088;-61
2023/06/04 02:57:28;;;;;;;2.30;1.63;;;;;;;;;;5020283;28;20036;-68
2023/06/04 02:59:55;;;;;;;2.90;1.53;;;;;;;;;;5019189;28;20057;-61
2023/06/04 03:02:20;;;;;;;2.47;1.48;;;;;;;;;;5025433;28;20053;-63
2023/06/04 03:04:47;;;;;;;2.33;1.52;;;;;;;;;;5020476;28;20539;-65
2023/06/04 03:07:13;;;;;;;1.85;1.25;;;;;;;;;;5018547;28;20034;-62
2023/06/04 03:09:38;;;;;;;1.92;1.38;;;;;;;;;;5018090;28;20115;-66
2023/06/04 03:12:03;;;;;;;2.50;1.53;;;;;;;;;;5025925;28;20514;-67
2023/06/04 03:14:32;;;;;;;1.80;1.55;;;;;;;;;;5028723;28;20277;-67
2023/06/04 03:17:00;;;;;;;2.50;1.85;;;;;;;;;;5027447;28;20025;-61
2023/06/04 03:19:26;;;;;;;2.20;1.30;;;;;;;;;;5011743;28;20060;-69
2023/06/04 03:21:52;;;;;;;1.98;1.40;;;;;;;;;;5023649;28;20668;-67
2023/06/04 03:24:17;;;;;;;2.42;1.35;;;;;;;;;;5023785;28;20495;-66
2023/06/04 03:26:42;;;;;;;2.23;1.53;;;;;;;;;;5026891;28;20034;-62
2023/06/04 03:29:07;;;;;;;2.27;1.40;;;;;;;;;;5019889;28;20563;-67
2023/06/04 03:31:32;;;;;;;2.33;1.40;;;;;;;;;;5023386;28;20701;-66
2023/06/04 03:33:58;;;;;;;1.70;1.37;;;;;;;;;;5023397;28;21004;-63
2023/06/04 03:36:31;;;;;;;2.65;1.50;;;;;;;;;;5017471;28;20765;-61
2023/06/04 03:38:56;;;;;;;2.30;1.27;;;;;;;;;;5020047;28;20515;-64
2023/06/04 03:41:22;;;;;;;2.10;1.63;;;;;;;;;;5018841;28;20072;-64
2023/06/04 03:43:47;;;;;;;2.07;1.37;;;;;;;;;;5023758;28;20025;-63
2023/06/04 03:46:12;;;;;;;2.72;1.40;;;;;;;;;;5024696;28;20342;-62
2023/06/04 03:48:38;;;;;;;2.00;1.60;;;;;;;;;;5020581;28;20018;-61
2023/06/04 03:51:03;;;;;;;2.60;1.70;;;;;;;;;;5019257;28;20349;-60
2023/06/04 03:53:28;;;;;;;2.72;1.70;;;;;;;;;;5023889;28;20013;-62
2023/06/04 03:55:53;;;;;;;2.73;1.63;;;;;;;;;;5017866;28;20836;-64
2023/06/04 03:58:21;;;;;;;2.57;1.87;;;;;;;;;;5022846;28;20462;-63
2023/06/04 04:00:46;;;;;;;2.78;1.60;;;;;;;;;;5024931;28;20037;-62
2023/06/04 04:03:11;;;;;;;3.17;1.60;;;;;;;;;;5023026;28;20489;-63
2023/06/04 04:05:36;;;;;;;2.27;1.53;;;;;;;;;;5021721;28;20479;-66
2023/06/04 04:08:02;;;;;;;3.83;1.53;;;;;;;;;;5006984;28;20571;-63
2023/06/04 04:10:27;;;;;;;2.95;1.77;;;;;;;;;;5022485;28;20319;-64
2023/06/04 04:12:54;;;;;;;3.63;1.50;;;;;;;;;;5019676;28;20022;-65
2023/06/04 04:15:19;;;;;;;4.25;1.83;;;;;;;;;;5021250;28;21030;-67
2023/06/04 04:17:45;;;;;;;3.20;1.90;;;;;;;;;;5024667;28;20060;-61
2023/06/04 04:20:10;;;;;;;3.60;1.90;;;;;;;;;;5024300;28;20304;-67
2023/06/04 04:22:39;;;;;;;3.42;1.70;;;;;;;;;;5023138;28;20296;-67
2023/06/04 04:25:05;;;;;;;2.15;1.73;;;;;;;;;;5018614;28;20026;-67
2023/06/04 04:27:31;;;;;;;3.25;2.00;;;;;;;;;;5022817;28;20513;-63
2023/06/04 04:29:59;;;;;;;3.53;1.67;;;;;;;;;;5025086;28;20425;-59
2023/06/04 04:32:25;;;;;;;2.30;2.03;;;;;;;;;;5021168;28;20041;-65
2023/06/04 04:34:54;;;;;;;2.03;1.42;;;;;;;;;;5018887;28;20160;-60
2023/06/04 04:37:21;;;;;;;2.80;1.80;;;;;;;;;;5009796;28;20524;-65
2023/06/04 04:39:47;;;;;;;3.47;2.17;;;;;;;;;;5009922;28;20049;-65
2023/06/04 04:42:12;;;;;;;2.73;1.77;;;;;;;;;;5012810;28;20116;-64
2023/06/04 04:44:37;;;;;;;3.77;1.63;;;;;;;;;;5016324;28;20272;-61
2023/06/04 04:47:02;;;;;;;7.87;1.97;;;;;;;;;;5028486;28;20346;-63
2023/06/04 04:49:28;;;;;;;3.20;1.60;;;;;;;;;;5024450;28;20276;-61
2023/06/04 04:51:53;;;;;;;4.57;1.70;;;;;;;;;;5006447;28;20044;-61
2023/06/04 04:54:18;;;;;;;4.17;2.00;;;;;;;;;;5026325;28;20036;-66
2023/06/04 04:56:43;;;;;;;2.53;1.67;;;;;;;;;;5035907;28;20304;-64
2023/06/04 04:59:09;;;;;;;2.78;1.90;;;;;;;;;;5024105;28;20299;-63
2023/06/04 05:01:34;;;;;;;2.28;1.60;;;;;;;;;;5026557;28;20034;-62
2023/06/04 05:03:59;;;;;;;1.88;1.33;;;;;;;;;;5023910;28;20048;-62
2023/06/04 05:06:25;;;;;;;2.75;1.60;;;;;;;;;;5024053;28;20507;-63
2023/06/04 05:08:50;;;;;;;3.13;2.23;;;;;;;;;;5031088;28;20037;-62
2023/06/04 05:11:15;;;;;;;2.20;1.60;;;;;;;;;;5021516;28;20272;-60
2023/06/04 05:13:43;;;;;;;2.90;1.50;;;;;;;;;;5028017;28;20819;-68
2023/06/04 05:16:11;;;;;;;4.13;1.73;;;;;;;;;;5023181;28;20856;-65
2023/06/04 05:18:44;;;;;;;2.78;1.70;;;;;;;;;;5006808;28;20046;-62
2023/06/04 05:21:11;;;;;;;3.42;1.67;;;;;;;;;;5023889;28;20105;-62
2023/06/04 05:23:37;;;;;;;2.97;1.80;;;;;;;;;;5022199;28;20515;-59
2023/06/04 05:26:03;;;;;;;4.28;1.83;;;;;;;;;;5024055;28;20079;-60
2023/06/04 05:28:28;;;;;;;3.78;1.80;;;;;;;;;;5025606;28;20526;-62
2023/06/04 05:30:58;;;;;;;4.57;2.20;;;;;;;;;;5024303;28;20123;-60
2023/06/04 05:33:24;;;;;;;4.22;2.20;;;;;;;;;;5010674;28;20034;-65
2023/06/04 05:35:49;;;;;;;3.45;2.20;;;;;;;;;;5009218;28;20537;-60
2023/06/04 05:38:18;;;;;;;3.07;2.03;;;;;;;;;;5022757;28;20503;-65
2023/06/04 05:40:43;;;;;;;3.27;2.17;;;;;;;;;;5021256;28;20041;-60
2023/06/04 05:43:09;;;;;;;3.22;2.10;;;;;;;;;;5023845;28;20276;-63
2023/06/04 05:45:34;;;;;;;4.07;2.20;;;;;;;;;;5024046;28;20029;-62
2023/06/04 05:48:00;;;;;;;3.03;2.20;;;;;;;;;;5024070;28;21868;-63
2023/06/04 05:50:25;;;;;;;4.30;2.00;;;;;;;;;;5022560;28;20321;-61
2023/06/04 05:52:50;;;;;;;4.15;2.20;;;;;;;;;;5024064;28;20037;-65
2023/06/04 05:55:16;;;;;;;3.33;2.07;;;;;;;;;;5023249;28;20091;-65
2023/06/04 05:57:42;;;;;;;4.53;2.20;;;;;;;;;;5023734;28;20087;-64
2023/06/04 06:00:10;;;;;;;4.40;2.42;;;;;;;;;;5021942;28;20053;-63
2023/06/04 06:02:35;;;;;;;4.47;2.20;;;;;;;;;;5023877;28;20037;-65
2023/06/04 06:05:01;;;;;;;4.55;2.30;;;;;;;;;;5022054;28;20029;-68
2023/06/04 06:07:26;;;;;;;3.40;2.00;;;;;;;;;;5023874;28;20050;-68
2023/06/04 06:09:52;;;;;;;4.90;2.50;;;;;;;;;;5023384;28;20311;-65
2023/06/04 06:12:17;;;;;;;4.15;2.33;;;;;;;;;;5012169;28;20293;-61
2023/06/04 06:14:42;;;;;;;3.30;2.40;;;;;;;;;;5012867;28;20072;-65
2023/06/04 06:17:07;;;;;;;5.33;2.93;;;;;;;;;;5020388;28;20281;-65
2023/06/04 06:19:33;;;;;;;4.90;3.83;;;;;;;;;;5024035;28;20045;-63
2023/06/04 06:21:58;;;;;;;4.90;3.40;;;;;;;;;;5007952;28;20828;-63
2023/06/04 06:24:24;;;;;;;5.38;3.60;;;;;;;;;;5007705;28;20021;-65
2023/06/04 06:26:49;;;;;;;6.43;3.92;;;;;;;;;;5025490;28;20033;-62
2023/06/04 06:29:14;;;;;;;6.95;4.28;;;;;;;;;;5021842;28;20120;-66
2023/06/04 06:31:40;;;;;;;8.38;3.85;;;;;;;;;;5026064;28;20049;-63
2023/06/04 06:34:05;;;;;;;7.10;4.07;;;;;;;;;;5020881;28;20210;-64
2023/06/04 06:36:32;;;;;;;4.68;3.53;;;;;;;;;;5002785;28;20407;-63
2023/06/04 06:38:57;;;;;;;5.90;3.85;;;;;;;;;;5022672;28;20048;-68
2023/06/04 06:41:23;;;;;;;6.05;3.58;;;;;;;;;;5016768;28;20041;-60
2023/06/04 06:43:48;;;;;;;4.87;3.80;;;;;;;;;;5018524;28;20067;-62
2023/06/04 06:46:13;;;;;;;5.57;3.78;;;;;;;;;;5024184;28;20033;-62
2023/06/04 06:48:38;;;;;;;5.40;3.73;;;;;;;;;;5023596;28;20094;-67
2023/06/04 06:51:04;;;;;;;5.87;3.83;;;;;;;;;;5030512;28;20096;-67
2023/06/04 06:53:29;;;;;;;5.37;3.17;;;;;;;;;;5022962;28;20331;-70
2023/06/04 06:55:54;;;;;;;6.60;3.50;;;;;;;;;;5030205;28;20280;-65
2023/06/04 06:58:19;;;;;;;4.78;3.05;;;;;;;;;;5021982;28;20073;-67
2023/06/04 07:00:45;;;;;;;4.50;3.13;;;;;;;;;;5006421;28;20044;-62
2023/06/04 07:03:10;;;;;;;4.77;3.37;;;;;;;;;;5010801;28;20468;-63
2023/06/04 07:05:35;;;;;;;5.10;3.27;;;;;;;;;;5022917;28;20284;-63
2023/06/04 07:08:01;;;;;;;3.92;3.03;;;;;;;;;;5023901;28;20286;-62
2023/06/04 07:10:27;;;;;;;4.90;3.40;;;;;;;;;;5034626;28;20712;-67
2023/06/04 07:12:52;;;;;;;4.50;2.80;;;;;;;;;;5026286;28;20044;-65
2023/06/04 07:15:18;;;;;;;4.80;3.60;;;;;;;;;;5028405;28;20492;-64
2023/06/04 07:17:43;;;;;;;6.15;3.05;;;;;;;;;;5033786;28;20570;-63
2023/06/04 07:20:09;;;;;;;3.60;2.93;;;;;;;;;;5022212;28;20049;-63
2023/06/04 07:22:34;;;;;;;4.20;3.13;;;;;;;;;;5023030;28;20269;-62
2023/06/04 07:24:59;;;;;;;4.53;2.90;;;;;;;;;;5028021;28;20045;-67
2023/06/04 07:27:26;;;;;;;3.95;2.70;;;;;;;;;;5023170;28;20017;-63
2023/06/04 07:29:51;;;;;;;4.50;3.03;;;;;;;;;;5031832;28;20493;-64
2023/06/04 07:32:16;;;;;;;3.53;2.83;;;;;;;;;;5021337;28;20037;-63
2023/06/04 07:34:42;;;;;;;5.72;2.92;;;;;;;;;;5025944;28;20826;-61
2023/06/04 07:37:09;;;;;;;5.57;3.43;;;;;;;;;;5023503;28;20045;-61
2023/06/04 07:39:34;;;;;;;5.70;3.22;;;;;;;;;;5023625;28;20630;-62
2023/06/04 07:41:59;;;;;;;5.97;3.33;;;;;;;;;;4988432;28;20042;-65
2023/06/04 07:44:24;;;;;;;5.10;3.27;;;;;;;;;;5026983;28;20069;-70
2023/06/04 07:46:50;;;;;;;3.90;2.90;;;;;;;;;;5025368;28;20816;-64
2023/06/04 07:49:15;;;;;;;4.78;3.33;;;;;;;;;;5026518;28;20392;-61
2023/06/04 07:51:40;;;;;;;4.10;2.97;;;;;;;;;;5025866;28;20041;-62
2023/06/04 07:54:06;;;;;;;4.57;3.20;;;;;;;;;;5023763;28;20038;-64
2023/06/04 07:56:31;;;;;;;4.88;3.28;;;;;;;;;;5022485;28;20121;-60
2023/06/04 07:58:56;;;;;;;3.73;3.17;;;;;;;;;;5013115;28;20051;-62
2023/06/04 08:01:23;;;;;;;5.10;3.83;;;;;;;;;;5016508;28;20038;-64
2023/06/04 08:03:48;;;;;;;7.32;3.97;;;;;;;;;;5017622;28;20817;-68
2023/06/04 08:06:17;;;;;;;6.32;4.57;;;;;;;;;;5026713;28;20033;-62
2023/06/04 08:08:45;;;;;;;6.68;4.60;;;;;;;;;;5030614;28;20069;-62
2023/06/04 08:11:14;;;;;;;8.73;4.70;;;;;;;;;;5019606;28;20042;-64
2023/06/04 08:13:40;;;;;;;7.18;4.25;;;;;;;;;;5026629;28;20033;-66
2023/06/04 08:16:05;;;;;;;6.65;4.70;;;;;;;;;;5011120;28;20034;-64
2023/06/04 08:18:30;;;;;;;6.23;4.40;;;;;;;;;;5025178;28;20503;-66
2023/06/04 08:20:56;;;;;;;5.93;3.90;;;;;;;;;;5009233;28;20320;-64
2023/06/04 08:23:21;;;;;;;7.53;4.65;;;;;;;;;;5019417;28;20292;-62
2023/06/04 08:25:46;;;;;;;6.38;4.88;;;;;;;;;;5036084;28;20029;-60
2023/06/04 08:28:15;;;;;;;6.77;4.10;;;;;;;;;;5031207;28;20075;-64
2023/06/04 08:30:41;;;;;;;7.68;5.25;;;;;;;;;;5031494;28;20029;-66
2023/06/04 08:33:07;;;;;;;7.22;5.22;;;;;;;;;;5028344;28;20140;-63
2023/06/04 08:35:32;;;;;;;7.63;5.60;;;;;;;;;;5023609;28;20112;-63
2023/06/04 08:37:58;;;;;;;8.32;5.40;;;;;;;;;;5018268;28;20061;-61
2023/06/04 08:40:24;;;;;;;7.68;5.07;;;;;;;;;;5021744;28;20038;-64
2023/06/04 08:42:50;;;;;;;6.85;4.85;;;;;;;;;;5006822;28;20427;-64
2023/06/04 08:45:16;;;;;;;9.13;4.80;;;;;;;;;;5022792;28;20069;-61
2023/06/04 08:47:43;;;;;;;6.10;4.10;;;;;;;;;;5028405;28;20037;-60
2023/06/04 08:50:08;;;;;;;6.00;4.28;;;;;;;;;;5008180;28;20041;-62
2023/06/04 08:52:33;;;;;;;6.82;4.85;;;;;;;;;;5032221;28;20259;-62
2023/06/04 08:54:59;;;;;;;7.27;4.67;;;;;;;;;;5026638;28;20610;-58
2023/06/04 08:57:24;;;;;;;7.00;4.90;;;;;;;;;;5025876;28;20367;-62
2023/06/04 08:59:49;;;;;;;6.43;4.77;;;;;;;;;;5027619;28;20056;-59
2023/06/04 09:02:14;;;;;;;11.60;5.40;;;;;;;;;;5021981;28;20040;-63
2023/06/04 09:04:40;;;;;;;6.15;4.80;;;;;;;;;;5022255;28;20681;-62
2023/06/04 09:07:05;;;;;;;6.32;4.60;;;;;;;;;;5024358;28;20499;-61
2023/06/04 09:09:31;;;;;;;6.20;4.53;;;;;;;;;;4987130;28;20037;-64
2023/06/04 09:11:57;;;;;;;8.00;4.97;;;;;;;;;;4996883;28;20150;-66
2023/06/04 09:14:22;;;;;;;6.45;4.30;;;;;;;;;;4994052;28;20605;-61
2023/06/04 09:16:48;;;;;;;6.80;4.73;;;;;;;;;;4996076;28;20431;-65
2023/06/04 09:19:13;;;;;;;5.85;4.28;;;;;;;;;;5003478;28;20697;-63
2023/06/04 09:21:52;;;;;;;6.65;4.55;;;;;;;;;;5002077;28;20038;-65
2023/06/04 09:24:17;;;;;;;6.45;4.70;;;;;;;;;;5005686;28;20523;-64
2023/06/04 09:26:43;;;;;;;6.68;5.18;;;;;;;;;;5021337;28;20032;-63
2023/06/04 09:29:08;;;;;;;6.85;4.85;;;;;;;;;;5027297;28;20128;-71
2023/06/04 09:31:36;;;;;;;8.60;5.87;;;;;;;;;;5026467;28;20033;-61
2023/06/04 09:34:02;;;;;;;8.70;6.05;;;;;;;;;;5011499;28;20145;-64
2023/06/04 09:36:29;;;;;;;7.93;5.50;;;;;;;;;;5009013;28;20112;-73
2023/06/04 09:38:55;;;;;;;8.32;6.10;;;;;;;;;;5012960;28;20049;-71
2023/06/04 09:41:21;;;;;;;9.50;6.03;;;;;;;;;;5006126;28;20505;-67
2023/06/04 09:43:46;;;;;;;8.93;5.68;;;;;;;;;;4999319;28;20064;-66
2023/06/04 09:46:12;;;;;;;9.83;5.90;;;;;;;;;;5024896;28;20132;-64
2023/06/04 09:48:38;;;;;;;8.43;6.15;;;;;;;;;;5012732;28;20291;-72
2023/06/04 09:51:21;;;;;;;8.52;6.20;;;;;;;;;;5028872;28;20033;-68
2023/06/04 09:53:53;;;;;;;9.15;6.07;;;;;;;;;;5026025;28;20076;-69
2023/06/04 09:56:18;;;;;;;8.60;6.70;;;;;;;;;;5023757;28;20037;-72
2023/06/04 09:58:44;;;;;;;9.00;6.60;;;;;;;;;;5027872;28;20033;-68
2023/06/04 10:01:11;;;;;;;10.95;7.00;;;;;;;;;;5030174;28;20272;-69
2023/06/04 10:03:36;;;;;;;9.10;7.25;;;;;;;;;;5014690;28;20036;-69
2023/06/04 10:06:05;;;;;;;8.85;6.78;;;;;;;;;;5026200;28;20045;-68
2023/06/04 10:08:30;;;;;;;10.55;6.68;;;;;;;;;;5028058;28;20037;-61
2023/06/04 10:10:57;;;;;;;9.85;6.35;;;;;;;;;;5027551;28;20094;-71
2023/06/04 10:13:23;;;;;;;8.75;6.57;;;;;;;;;;5027755;28;20131;-67
2023/06/04 10:15:48;;;;;;;9.82;6.65;;;;;;;;;;5011033;28;20034;-70
2023/06/04 10:18:14;;;;;;;8.60;6.25;;;;;;;;;;5026877;28;20540;-66
2023/06/04 10:20:40;;;;;;;8.00;6.57;;;;;;;;;;5022802;28;20559;-65
2023/06/04 10:23:05;;;;;;;9.98;6.43;;;;;;;;;;5012425;28;20175;-70
2023/06/04 10:25:30;;;;;;;8.38;6.18;;;;;;;;;;5007821;28;20034;-64
2023/06/04 10:27:56;;;;;;;7.57;5.38;;;;;;;;;;5008496;28;20120;-65
2023/06/04 10:30:21;;;;;;;7.82;6.00;;;;;;;;;;5008946;28;20042;-70
2023/06/04 10:32:46;;;;;;;7.53;5.90;;;;;;;;;;5023318;28;20152;-66
2023/06/04 10:35:12;;;;;;;7.60;5.40;;;;;;;;;;5023503;28;21561;-66
2023/06/04 10:37:37;;;;;;;7.72;5.35;;;;;;;;;;5030053;28;20033;-68
2023/06/04 10:40:04;;;;;;;8.23;4.87;;;;;;;;;;5020372;28;20067;-68
2023/06/04 10:42:37;;;;;;;7.50;5.30;;;;;;;;;;5022891;28;20030;-70
2023/06/04 10:45:02;;;;;;;8.88;5.60;;;;;;;;;;5022651;28;20133;-70
2023/06/04 10:47:30;;;;;;;7.75;5.45;;;;;;;;;;5005740;28;20112;-65
2023/06/04 10:49:55;;;;;;;8.25;5.43;;;;;;;;;;5024103;28;20033;-63
2023/06/04 10:52:22;;;;;;;8.23;5.60;;;;;;;;;;4999758;28;20077;-66
2023/06/04 10:54:53;;;;;;;7.63;5.50;;;;;;;;;;5004229;28;20109;-70
2023/06/04 10:57:18;;;;;;;7.10;5.55;;;;;;;;;;5004554;28;20037;-67
2023/06/04 10:59:59;;;;;;;7.50;5.60;;;;;;;;;;5002067;28;20049;-73
2023/06/04 11:02:24;;;;;;;8.18;5.32;;;;;;;;;;5000113;28;20706;-71
2023/06/04 11:05:01;;;;;;;7.45;5.82;;;;;;;;;;4985905;28;20117;-70
2023/06/04 11:07:26;;;;;;;7.63;5.40;;;;;;;;;;5005036;28;20055;-71
2023/06/04 11:09:51;;;;;;;6.23;5.03;;;;;;;;;;5008420;28;20034;-64
2023/06/04 11:12:17;;;;;;;6.93;4.87;;;;;;;;;;4985730;28;20288;-68
2023/06/04 11:14:53;;;;;;;9.20;5.32;;;;;;;;;;5004495;28;20297;-66
2023/06/04 11:17:18;;;;;;;8.30;5.15;;;;;;;;;;4987236;28;20218;-71
2023/06/04 11:19:43;;;;;;;6.50;5.17;;;;;;;;;;4985696;28;20493;-69
2023/06/04 11:22:12;;;;;;;7.97;5.27;;;;;;;;;;4981776;28;20402;-70
2023/06/04 11:24:37;;;;;;;8.05;5.55;;;;;;;;;;4978763;28;20351;-69
2023/06/04 11:27:03;;;;;;;7.93;5.68;;;;;;;;;;4982827;28;20485;-67
2023/06/04 11:29:28;;;;;;;6.97;5.50;;;;;;;;;;4985031;28;20504;-69
2023/06/04 11:31:53;;;;;;;7.87;5.60;;;;;;;;;;4979778;28;20089;-70
2023/06/04 11:34:28;;;;;;;7.72;5.45;;;;;;;;;;4990328;28;20331;-64
2023/06/04 11:36:53;;;;;;;8.70;5.53;;;;;;;;;;4988475;28;20058;-69
2023/06/04 11:39:19;;;;;;;7.28;5.35;;;;;;;;;;4978890;28;20108;-61
2023/06/04 11:41:44;;;;;;;7.80;5.53;;;;;;;;;;4980894;28;20073;-68
2023/06/04 11:44:09;;;;;;;7.93;5.88;;;;;;;;;;4985343;28;20045;-63
2023/06/04 11:46:35;;;;;;;7.07;5.95;;;;;;;;;;4959431;28;20097;-68
2023/06/04 11:49:01;;;;;;;7.53;5.68;;;;;;;;;;4989430;28;20042;-66
2023/06/04 11:51:26;;;;;;;9.80;5.90;;;;;;;;;;5002042;28;20463;-68
2023/06/04 11:53:52;;;;;;;6.53;5.63;;;;;;;;;;5001908;28;20053;-70
2023/06/04 11:56:17;;;;;;;8.57;5.10;;;;;;;;;;5003245;28;20038;-70
2023/06/04 11:58:42;;;;;;;8.23;5.90;;;;;;;;;;5003035;28;20108;-69
2023/06/04 12:01:08;;;;;;;7.05;6.03;;;;;;;;;;5012031;28;20293;-68
2023/06/04 12:03:35;;;;;;;7.68;5.97;;;;;;;;;;4999364;28;20050;-68
2023/06/04 12:06:08;;;;;;;7.80;5.97;;;;;;;;;;5008368;28;20038;-69
2023/06/04 12:08:33;;;;;;;9.73;6.40;;;;;;;;;;5005389;28;20037;-75
2023/06/04 12:10:59;;;;;;;7.87;6.10;;;;;;;;;;5008256;28;20065;-70
2023/06/04 12:13:24;;;;;;;7.50;5.30;;;;;;;;;;5001271;28;20038;-74
2023/06/04 12:15:53;;;;;;;7.37;5.37;;;;;;;;;;5003496;28;20049;-73
2023/06/04 12:18:24;;;;;;;7.40;6.07;;;;;;;;;;5003236;28;20061;-61
2023/06/04 12:20:52;;;;;;;5.80;5.20;;;;;;;;;;4992142;28;20057;-69
2023/06/04 12:23:21;;;;;;;10.50;6.40;;;;;;;;;;5024470;28;20044;-69
2023/06/04 12:25:50;;;;;;;6.88;5.93;;;;;;;;;;5013845;28;20544;-71
2023/06/04 12:28:18;;;;;;;7.57;6.55;;;;;;;;;;5005717;28;20092;-63
2023/06/04 12:30:43;;;;;;;6.57;5.82;;;;;;;;;;5024342;28;20531;-71
2023/06/04 12:33:10;;;;;;;7.93;6.60;;;;;;;;;;5023429;28;20024;-65
2023/06/04 12:35:35;;;;;;;8.13;6.15;;;;;;;;;;5021722;28;20888;-64
2023/06/04 12:38:02;;;;;;;8.52;6.13;;;;;;;;;;5015938;28;20025;-69
2023/06/04 12:40:27;;;;;;;7.43;6.07;;;;;;;;;;5016182;28;20066;-65
2023/06/04 12:42:53;;;;;;;8.17;6.70;;;;;;;;;;5016000;28;20519;-70
2023/06/04 12:45:18;;;;;;;9.47;6.13;;;;;;;;;;5021708;28;20523;-67
2023/06/04 12:47:43;;;;;;;8.18;6.10;;;;;;;;;;5025546;28;20272;-74
2023/06/04 12:50:08;;;;;;;8.53;5.73;;;;;;;;;;5027063;28;20055;-65
2023/06/04 12:52:34;;;;;;;8.13;5.80;;;;;;;;;;5026235;28;20260;-71
2023/06/04 12:54:59;;;;;;;7.28;6.22;;;;;;;;;;5025815;28;20014;-75
2023/06/04 12:57:24;;;;;;;8.32;6.30;;;;;;;;;;5026139;28;20026;-65
2023/06/04 12:59:50;;;;;;;8.73;6.10;;;;;;;;;;5024829;28;20065;-71
2023/06/04 13:02:15;;;;;;;6.10;5.47;;;;;;;;;;5024966;28;20408;-63
2023/06/04 13:04:42;;;;;;;7.30;5.63;;;;;;;;;;5004284;28;20272;-68
2023/06/04 13:07:08;;;;;;;7.53;5.95;;;;;;;;;;5005738;28;20540;-66
2023/06/04 13:09:34;;;;;;;7.23;6.13;;;;;;;;;;5016236;28;20022;-66
2023/06/04 13:12:00;;;;;;;7.35;5.65;;;;;;;;;;5013186;28;20778;-61
2023/06/04 13:14:25;;;;;;;6.37;5.67;;;;;;;;;;5018906;28;20022;-68
2023/06/04 13:16:51;;;;;;;6.80;6.10;;;;;;;;;;5013295;28;20065;-66
2023/06/04 13:19:16;;;;;;;7.05;5.93;;;;;;;;;;5015054;28;20482;-66
2023/06/04 13:21:41;;;;;;;7.50;5.77;;;;;;;;;;5015827;28;23098;-62
2023/06/04 13:24:10;;;;;;;6.25;5.35;;;;;;;;;;5015192;28;20449;-64
2023/06/04 13:26:35;;;;;;;7.88;5.57;;;;;;;;;;5022786;28;20033;-62
2023/06/04 13:29:01;;;;;;;6.85;5.53;;;;;;;;;;5022359;28;20542;-65
2023/06/04 13:31:26;;;;;;;6.07;5.47;;;;;;;;;;5020521;28;20757;-64
2023/06/04 13:33:51;;;;;;;6.83;5.13;;;;;;;;;;4995691;28;20329;-64
2023/06/04 13:36:16;;;;;;;6.83;5.40;;;;;;;;;;5003881;28;20272;-66
2023/06/04 13:38:43;;;;;;;6.80;5.07;;;;;;;;;;5019122;28;20038;-63
2023/06/04 13:41:08;;;;;;;6.40;4.93;;;;;;;;;;5008317;28;20072;-64
2023/06/04 13:43:33;;;;;;;5.45;4.70;;;;;;;;;;4988999;28;20396;-63
2023/06/04 13:45:58;;;;;;;6.60;4.80;;;;;;;;;;5018284;28;20335;-63
2023/06/04 13:48:24;;;;;;;5.47;4.87;;;;;;;;;;5018613;28;20287;-63
2023/06/04 13:50:49;;;;;;;7.68;5.30;;;;;;;;;;5006818;28;20038;-66
2023/06/04 13:53:14;;;;;;;5.13;4.60;;;;;;;;;;5018228;28;20037;-64
2023/06/04 13:55:40;;;;;;;5.63;4.50;;;;;;;;;;5019161;28;20041;-63
2023/06/04 13:58:05;;;;;;;6.63;4.93;;;;;;;;;;4992346;28;20747;-67
2023/06/04 14:00:31;;;;;;;8.82;5.32;;;;;;;;;;5019859;28;20144;-62
2023/06/04 14:02:56;;;;;;;8.68;4.80;;;;;;;;;;5017283;28;20068;-66
2023/06/04 14:05:22;;;;;;;5.80;4.78;;;;;;;;;;5001067;28;20033;-66
2023/06/04 14:07:47;;;;;;;6.40;4.97;;;;;;;;;;5013479;28;20037;-66
2023/06/04 14:10:12;;;;;;;9.10;5.03;;;;;;;;;;4998722;28;20092;-65
2023/06/04 14:12:39;;;;;;;6.82;4.20;;;;;;;;;;5013977;28;20852;-64
2023/06/04 14:15:05;;;;;;;7.47;4.85;;;;;;;;;;5021234;28;20033;-67
2023/06/04 14:17:30;;;;;;;5.10;4.60;;;;;;;;;;5016959;28;20418;-65
2023/06/04 14:19:55;;;;;;;5.20;4.50;;;;;;;;;;5018647;28;20109;-62
2023/06/04 14:22:21;;;;;;;6.60;5.33;;;;;;;;;;5000911;28;20295;-66
2023/06/04 14:24:46;;;;;;;6.30;5.07;;;;;;;;;;5010446;28;20040;-62
2023/06/04 14:27:11;;;;;;;6.87;4.90;;;;;;;;;;5015405;28;20284;-66
2023/06/04 14:29:37;;;;;;;6.88;4.97;;;;;;;;;;5024099;28;20386;-63
2023/06/04 14:32:03;;;;;;;7.47;5.53;;;;;;;;;;5025480;28;20037;-65
2023/06/04 14:34:28;;;;;;;7.03;5.28;;;;;;;;;;5021860;28;20091;-65
2023/06/04 14:36:54;;;;;;;6.30;5.18;;;;;;;;;;5005033;28;20077;-62